logo
Search for airport 
image banner adimage banner adimage banner ad
image banner ad

YAPA - Anna Plains Airport

Located in Eighty Mile Beach, Australia

ICAO - YAPA, IATA -

Data provided by Airmate  

General information

Coordinates: S19°16'6" E121°30'41"
Elevation is 56 feet MSL.
Magnetic variation is 2° East
View others Airports in (unassigned)

Operational data

Special qualification required
Current time UTC:
Current local time:
Weather at : - ( 0 km )
METAR: ZMCK 191630Z 08003MPS 9999 FEW033 SCT100 06/M06 Q1005 NOSIG RMK QFE640.0 42 NT
View NOTAMs / SUP AIP / TFR affecting this airport [VIEW]
Communications frequencies: [VIEW]

Runways:

RWY identifierQFULength (ft)Width (ft)SurfaceLDA (ft)
10100°5823139DIRT
28280°5823139DIRT

Airport contact information

Address: Eighty Mile Beach Australia

Satellite view of YAPA